Portland, Oregon
Traffic Map
Current Weather Conditions
Portland, Oregon
Broken Clouds
Broken Clouds
10°
Feels Like: 10°
Wind Chill: 10° Ceiling: 3200
Heat Index: 10° Visibility: 10mi
Dew Point: Wind: 15mph
Humidity: 68% Direction: 260° (W)
Pressure: 29.8in Gusts: 0mph
Raw Report DataKPDX 180053Z 26013KT 10SM BKN032 BKN045 BKN060 10/04 A2980 RMK AO2 PK WND 26027/0010 RAB15E29 SLP090 P0001 T01000044
Traffic Incident Summary
Active as of:
Severity:
Category:
InformationThere was an issue retrieving the traffic information for this location. Please try a different location or try again shortly.
Advertisements